Time;durP1;ratioP1;P1;durP2;ratioP2;P2;SDS_P1;SDS_P2;PMS_P1;PMS_P2;Temp;Humidity;BMP_temperature;BMP_pressure;BME280_temperature;BME280_humidity;BME280_pressure;Samples;Min_cycle;Max_cycle;Signal;HPM_P1;HPM_P2
2021/12/06 00:00:59;;;;;;;40.03;19.52;;;;;;;;;;4974405;28;20186;-69
2021/12/06 00:03:28;;;;;;;38.10;20.52;;;;;;;;;;4973913;28;20034;-69
2021/12/06 00:05:54;;;;;;;37.13;20.63;;;;;;;;;;4973828;28;20035;-70
2021/12/06 00:08:20;;;;;;;35.28;18.83;;;;;;;;;;4974151;28;20023;-68
2021/12/06 00:10:50;;;;;;;36.60;18.55;;;;;;;;;;4974112;28;20110;-70
2021/12/06 00:13:22;;;;;;;42.22;20.77;;;;;;;;;;4972572;28;20091;-69
2021/12/06 00:15:50;;;;;;;34.35;18.83;;;;;;;;;;4973988;28;20038;-70
2021/12/06 00:18:16;;;;;;;34.75;18.90;;;;;;;;;;4973747;28;20019;-69
2021/12/06 00:20:42;;;;;;;45.53;20.45;;;;;;;;;;4974098;28;20030;-68
2021/12/06 00:23:08;;;;;;;37.40;20.38;;;;;;;;;;4973628;28;20033;-69
2021/12/06 00:25:35;;;;;;;39.78;20.50;;;;;;;;;;4973792;28;20113;-69
2021/12/06 00:28:01;;;;;;;36.22;20.90;;;;;;;;;;4973870;28;20030;-69
2021/12/06 00:30:27;;;;;;;38.60;20.40;;;;;;;;;;4973552;28;20384;-69
2021/12/06 00:32:53;;;;;;;39.15;21.10;;;;;;;;;;4973365;28;20035;-69
2021/12/06 00:35:24;;;;;;;39.22;21.48;;;;;;;;;;4973441;28;20033;-69
2021/12/06 00:37:58;;;;;;;43.53;21.30;;;;;;;;;;4973693;28;20031;-69
2021/12/06 00:40:31;;;;;;;49.38;22.92;;;;;;;;;;4973618;28;20380;-69
2021/12/06 00:42:57;;;;;;;45.42;21.98;;;;;;;;;;4973315;28;20101;-69
2021/12/06 00:45:23;;;;;;;41.33;22.42;;;;;;;;;;4973087;28;20124;-68
2021/12/06 00:47:49;;;;;;;41.33;21.83;;;;;;;;;;4973592;28;20044;-69
2021/12/06 00:50:16;;;;;;;40.88;21.65;;;;;;;;;;4973750;28;20118;-69
2021/12/06 00:52:43;;;;;;;38.20;20.63;;;;;;;;;;4973332;28;20022;-69
2021/12/06 00:55:09;;;;;;;35.13;19.40;;;;;;;;;;4973176;28;20393;-69
2021/12/06 00:57:36;;;;;;;39.65;21.35;;;;;;;;;;4973484;28;20046;-69
2021/12/06 01:00:03;;;;;;;39.30;20.48;;;;;;;;;;4973380;28;20031;-68
2021/12/06 01:02:29;;;;;;;37.67;19.77;;;;;;;;;;4973415;28;20027;-69
2021/12/06 01:04:55;;;;;;;37.92;19.55;;;;;;;;;;5004642;22;20104;-74
2021/12/06 01:07:21;;;;;;;38.13;19.95;;;;;;;;;;5030606;28;20029;-74
2021/12/06 01:09:47;;;;;;;38.45;19.23;;;;;;;;;;5030446;28;20021;-75
2021/12/06 01:12:13;;;;;;;37.25;19.48;;;;;;;;;;5031789;28;20025;-77
2021/12/06 01:14:39;;;;;;;33.08;18.38;;;;;;;;;;5031417;28;20044;-74
2021/12/06 01:17:06;;;;;;;34.08;19.33;;;;;;;;;;5030422;28;20038;-76
2021/12/06 01:19:32;;;;;;;35.80;18.02;;;;;;;;;;5031993;28;20041;-75
2021/12/06 01:22:12;;;;;;;33.88;16.80;;;;;;;;;;5031810;28;20029;-75
2021/12/06 01:24:44;;;;;;;28.63;16.40;;;;;;;;;;5031484;28;20025;-75
2021/12/06 01:32:49;;;;;;;35.28;17.80;;;;;;;;;;5032246;28;20033;-75
2021/12/06 01:40:39;;;;;;;34.33;18.30;;;;;;;;;;5031526;28;20037;-75
2021/12/06 01:43:05;;;;;;;38.53;18.88;;;;;;;;;;5031415;28;20029;-74
2021/12/06 01:45:31;;;;;;;38.75;20.30;;;;;;;;;;5031341;28;20475;-75
2021/12/06 01:47:57;;;;;;;42.08;20.65;;;;;;;;;;5031465;28;20471;-75
2021/12/06 01:50:24;;;;;;;39.95;19.42;;;;;;;;;;5030127;28;20025;-74
2021/12/06 01:52:55;;;;;;;42.63;21.13;;;;;;;;;;5029912;28;20017;-75
2021/12/06 01:55:22;;;;;;;49.80;22.30;;;;;;;;;;5031482;28;20032;-76
2021/12/06 01:57:49;;;;;;;55.80;22.25;;;;;;;;;;5031466;28;20021;-75
2021/12/06 02:00:20;;;;;;;57.80;22.65;;;;;;;;;;5030197;28;20021;-76
2021/12/06 02:02:46;;;;;;;;;;;;;;;;;;5031710;28;20026;-74
2021/12/06 02:05:12;;;;;;;56.10;22.77;;;;;;;;;;5030957;28;20297;-74
2021/12/06 02:07:38;;;;;;;60.60;24.50;;;;;;;;;;5031606;28;20038;-74
2021/12/06 02:10:06;;;;;;;60.85;24.90;;;;;;;;;;5030047;28;20048;-74
2021/12/06 02:12:32;;;;;;;60.60;24.80;;;;;;;;;;5031233;28;20066;-74
2021/12/06 02:15:07;;;;;;;61.17;25.90;;;;;;;;;;5031098;28;20412;-74
2021/12/06 02:17:38;;;;;;;67.55;25.02;;;;;;;;;;5031462;28;20364;-74
2021/12/06 02:20:07;;;;;;;60.55;24.70;;;;;;;;;;5034925;28;20021;-74
2021/12/06 02:22:36;;;;;;;62.72;26.02;;;;;;;;;;5034973;28;20030;-75
2021/12/06 02:25:03;;;;;;;59.08;24.83;;;;;;;;;;5033133;28;20026;-75
2021/12/06 02:27:29;;;;;;;55.30;23.27;;;;;;;;;;5034774;28;20029;-74
2021/12/06 02:29:57;;;;;;;55.15;24.75;;;;;;;;;;5033304;28;20029;-74
2021/12/06 02:32:23;;;;;;;61.70;25.33;;;;;;;;;;5034471;28;20061;-74
2021/12/06 02:34:51;;;;;;;68.22;26.23;;;;;;;;;;5032997;28;20030;-74
2021/12/06 02:37:18;;;;;;;60.55;25.85;;;;;;;;;;5034512;28;20030;-74
2021/12/06 02:39:45;;;;;;;57.92;25.95;;;;;;;;;;5034540;28;20107;-74
2021/12/06 02:42:14;;;;;;;64.72;27.50;;;;;;;;;;5035004;28;20036;-74
2021/12/06 02:44:40;;;;;;;65.90;28.38;;;;;;;;;;5032686;28;20060;-74
2021/12/06 02:47:06;;;;;;;62.20;25.85;;;;;;;;;;5034506;28;20030;-74
2021/12/06 02:49:32;;;;;;;69.53;29.38;;;;;;;;;;5034395;28;20426;-75
2021/12/06 02:51:58;;;;;;;66.55;26.98;;;;;;;;;;5034487;28;20052;-74
2021/12/06 02:54:26;;;;;;;65.97;26.45;;;;;;;;;;5032806;28;20033;-74
2021/12/06 02:56:56;;;;;;;67.30;26.27;;;;;;;;;;5034019;28;20499;-74
2021/12/06 02:59:26;;;;;;;72.57;28.10;;;;;;;;;;5034044;28;20037;-74
2021/12/06 03:01:54;;;;;;;73.97;29.47;;;;;;;;;;5033155;28;20026;-75
2021/12/06 03:04:20;;;;;;;76.05;30.48;;;;;;;;;;5033668;28;20487;-75
2021/12/06 03:06:48;;;;;;;72.00;29.35;;;;;;;;;;5033808;28;20041;-74
2021/12/06 03:09:13;;;;;;;74.28;28.98;;;;;;;;;;5034027;28;20092;-76
2021/12/06 03:11:42;;;;;;;70.95;28.17;;;;;;;;;;5033790;28;20427;-74
2021/12/06 03:14:10;;;;;;;77.25;29.75;;;;;;;;;;5032310;28;20029;-74
2021/12/06 03:16:36;;;;;;;84.78;28.90;;;;;;;;;;5032652;28;20079;-74
2021/12/06 03:19:05;;;;;;;79.13;29.00;;;;;;;;;;5032532;28;20029;-74
2021/12/06 03:21:31;;;;;;;77.07;29.40;;;;;;;;;;5032420;28;20018;-74
2021/12/06 03:23:57;;;;;;;74.20;28.25;;;;;;;;;;5032256;28;20030;-75
2021/12/06 03:26:23;;;;;;;74.25;28.08;;;;;;;;;;5033319;28;20025;-74
2021/12/06 03:28:49;;;;;;;67.75;28.15;;;;;;;;;;5033626;28;20394;-75
2021/12/06 03:31:16;;;;;;;68.50;28.02;;;;;;;;;;5033745;28;20554;-75
2021/12/06 03:33:43;;;;;;;68.03;28.05;;;;;;;;;;5033356;28;20024;-75
2021/12/06 03:36:10;;;;;;;64.13;26.65;;;;;;;;;;5033562;28;20487;-75
2021/12/06 03:38:36;;;;;;;62.80;24.05;;;;;;;;;;5033607;28;20461;-75
2021/12/06 03:41:03;;;;;;;57.67;24.23;;;;;;;;;;5033327;28;20025;-75
2021/12/06 03:43:29;;;;;;;62.08;26.13;;;;;;;;;;5033326;28;20029;-75
2021/12/06 03:45:55;;;;;;;61.25;24.30;;;;;;;;;;5032003;28;20264;-77
2021/12/06 03:48:21;;;;;;;69.53;28.55;;;;;;;;;;5033798;28;20033;-76
2021/12/06 03:50:47;;;;;;;74.28;29.67;;;;;;;;;;5033507;28;20026;-75
2021/12/06 03:53:13;;;;;;;76.97;27.20;;;;;;;;;;5031918;28;20098;-75
2021/12/06 03:55:39;;;;;;;70.70;27.75;;;;;;;;;;5032960;28;20104;-75
2021/12/06 03:58:05;;;;;;;70.85;26.67;;;;;;;;;;5033015;28;20029;-75
2021/12/06 04:00:33;;;;;;;68.90;27.70;;;;;;;;;;5031960;28;20291;-75
2021/12/06 04:02:59;;;;;;;70.18;27.13;;;;;;;;;;5032801;28;20021;-75
2021/12/06 04:05:25;;;;;;;68.20;29.02;;;;;;;;;;5032646;28;20495;-75
2021/12/06 04:07:51;;;;;;;73.00;29.38;;;;;;;;;;5032972;28;20032;-74
2021/12/06 04:10:17;;;;;;;74.43;29.73;;;;;;;;;;5032748;28;20467;-74
2021/12/06 04:12:43;;;;;;;74.93;30.35;;;;;;;;;;5033084;28;20108;-75
2021/12/06 04:15:11;;;;;;;65.32;29.75;;;;;;;;;;5032750;28;20128;-74
2021/12/06 04:17:37;;;;;;;64.82;28.17;;;;;;;;;;5033170;28;20025;-75
2021/12/06 04:20:05;;;;;;;74.03;31.52;;;;;;;;;;5031243;28;20080;-75
2021/12/06 04:22:31;;;;;;;75.55;31.98;;;;;;;;;;5032424;28;20021;-75
2021/12/06 04:25:00;;;;;;;74.80;30.35;;;;;;;;;;5032264;28;20032;-74
2021/12/06 04:27:27;;;;;;;76.85;32.30;;;;;;;;;;5031458;28;20041;-75
2021/12/06 04:29:53;;;;;;;78.20;31.75;;;;;;;;;;5032634;28;20064;-74
2021/12/06 04:32:20;;;;;;;76.50;31.48;;;;;;;;;;5032480;28;20030;-75
2021/12/06 04:34:46;;;;;;;72.95;31.40;;;;;;;;;;5032135;28;20026;-73
2021/12/06 04:37:12;;;;;;;77.53;31.05;;;;;;;;;;5032163;28;20471;-73
2021/12/06 04:39:39;;;;;;;76.10;30.25;;;;;;;;;;5032475;28;20076;-74
2021/12/06 04:42:05;;;;;;;76.20;30.80;;;;;;;;;;5030532;28;20025;-72
2021/12/06 04:44:32;;;;;;;77.93;31.92;;;;;;;;;;5031932;28;20033;-74
2021/12/06 04:46:58;;;;;;;76.03;32.28;;;;;;;;;;5030734;28;20017;-74
2021/12/06 04:49:26;;;;;;;76.63;32.17;;;;;;;;;;5032158;28;20021;-73
2021/12/06 04:51:53;;;;;;;85.18;34.90;;;;;;;;;;5031891;28;20044;-73
2021/12/06 04:54:20;;;;;;;84.82;35.17;;;;;;;;;;5031882;28;20430;-73
2021/12/06 04:56:49;;;;;;;86.80;36.03;;;;;;;;;;5031995;28;20525;-74
2021/12/06 04:59:22;;;;;;;88.25;36.80;;;;;;;;;;5030747;28;20117;-73
2021/12/06 05:01:51;;;;;;;95.50;36.53;;;;;;;;;;5031987;28;20021;-73
2021/12/06 05:04:20;;;;;;;78.22;35.58;;;;;;;;;;5031796;28;20095;-72
2021/12/06 05:06:47;;;;;;;77.30;35.53;;;;;;;;;;5031533;28;20045;-73
2021/12/06 05:09:16;;;;;;;84.60;35.30;;;;;;;;;;5030605;28;20025;-73
2021/12/06 05:11:43;;;;;;;85.13;35.22;;;;;;;;;;5031923;28;20083;-74
2021/12/06 05:14:09;;;;;;;88.50;37.03;;;;;;;;;;5031525;28;20543;-74
2021/12/06 05:16:36;;;;;;;74.60;33.90;;;;;;;;;;5030398;28;20479;-74
2021/12/06 05:19:03;;;;;;;83.10;34.00;;;;;;;;;;5031620;28;20022;-73
2021/12/06 05:21:29;;;;;;;79.65;34.85;;;;;;;;;;5029778;28;20490;-72
2021/12/06 05:23:55;;;;;;;76.03;34.83;;;;;;;;;;5031954;28;20274;-73
2021/12/06 05:26:21;;;;;;;84.25;36.67;;;;;;;;;;5028703;28;20033;-74
2021/12/06 05:28:48;;;;;;;80.22;34.53;;;;;;;;;;5031193;28;20034;-74
2021/12/06 05:31:17;;;;;;;83.40;34.60;;;;;;;;;;5031580;28;20578;-73
2021/12/06 05:33:45;;;;;;;78.13;33.75;;;;;;;;;;5031308;28;20124;-74
2021/12/06 05:36:11;;;;;;;92.00;36.65;;;;;;;;;;5031653;28;20030;-74
2021/12/06 05:38:37;;;;;;;79.82;34.70;;;;;;;;;;5031262;28;20082;-74
2021/12/06 05:41:03;;;;;;;79.40;34.63;;;;;;;;;;5031341;28;20049;-74
2021/12/06 05:43:29;;;;;;;88.38;38.97;;;;;;;;;;5029751;28;20479;-73
2021/12/06 05:45:55;;;;;;;83.13;36.97;;;;;;;;;;5031723;28;20112;-74
2021/12/06 05:48:21;;;;;;;85.88;36.58;;;;;;;;;;5031668;28;20506;-74
2021/12/06 05:50:48;;;;;;;78.13;35.90;;;;;;;;;;5030257;28;20029;-75
2021/12/06 05:53:14;;;;;;;84.22;35.42;;;;;;;;;;5032551;28;20033;-74
2021/12/06 05:55:40;;;;;;;78.72;35.83;;;;;;;;;;5035650;28;20029;-76
2021/12/06 05:58:08;;;;;;;78.45;34.90;;;;;;;;;;5035216;28;20037;-75
2021/12/06 06:00:35;;;;;;;79.63;34.35;;;;;;;;;;5035235;28;20021;-74
2021/12/06 06:03:03;;;;;;;82.88;36.22;;;;;;;;;;5033694;28;20048;-74
2021/12/06 06:05:29;;;;;;;75.15;34.80;;;;;;;;;;5035005;28;20025;-76
2021/12/06 06:07:55;;;;;;;71.53;33.13;;;;;;;;;;5034991;28;20029;-75
2021/12/06 06:10:21;;;;;;;82.25;35.00;;;;;;;;;;5034702;28;20029;-73
2021/12/06 06:12:47;;;;;;;78.35;35.03;;;;;;;;;;5034611;28;20108;-73
2021/12/06 06:15:13;;;;;;;76.18;34.83;;;;;;;;;;5034970;28;20048;-75
2021/12/06 06:17:42;;;;;;;81.53;34.67;;;;;;;;;;5034890;28;20030;-73
2021/12/06 06:20:19;;;;;;;83.90;35.97;;;;;;;;;;5034679;28;20044;-73
2021/12/06 06:22:45;;;;;;;79.53;35.00;;;;;;;;;;5034456;28;20064;-72
2021/12/06 06:25:11;;;;;;;74.05;35.33;;;;;;;;;;5034609;28;20021;-74
2021/12/06 06:27:37;;;;;;;66.05;33.03;;;;;;;;;;5034482;28;20021;-75
2021/12/06 06:30:05;;;;;;;66.65;33.78;;;;;;;;;;5034266;28;20446;-73
2021/12/06 06:32:31;;;;;;;65.88;33.55;;;;;;;;;;5034449;28;20022;-70
2021/12/06 06:34:57;;;;;;;69.85;34.35;;;;;;;;;;5034094;28;20076;-74
2021/12/06 06:37:23;;;;;;;66.43;32.45;;;;;;;;;;5034319;28;20041;-73
2021/12/06 06:39:49;;;;;;;61.38;32.05;;;;;;;;;;5026643;28;20113;-75
2021/12/06 06:42:15;;;;;;;63.72;32.42;;;;;;;;;;5021464;28;20034;-74
2021/12/06 06:44:42;;;;;;;63.60;32.85;;;;;;;;;;5014564;28;20030;-75
2021/12/06 06:47:08;;;;;;;60.30;31.70;;;;;;;;;;5014712;28;20552;-74
2021/12/06 06:49:34;;;;;;;68.18;33.60;;;;;;;;;;5014368;28;20033;-75
2021/12/06 06:52:00;;;;;;;58.28;32.22;;;;;;;;;;5026087;28;20594;-75
2021/12/06 06:54:26;;;;;;;63.97;32.72;;;;;;;;;;5031920;28;20033;-76
2021/12/06 06:56:53;;;;;;;65.65;32.97;;;;;;;;;;5032364;28;20026;-75
2021/12/06 06:59:19;;;;;;;59.25;31.23;;;;;;;;;;5032364;28;20060;-74
2021/12/06 07:01:48;;;;;;;66.60;33.75;;;;;;;;;;5018742;28;20037;-75
2021/12/06 07:04:14;;;;;;;63.42;33.67;;;;;;;;;;5013373;28;20415;-75
2021/12/06 07:06:40;;;;;;;63.55;32.95;;;;;;;;;;5028851;23;20077;-69
2021/12/06 07:09:06;;;;;;;65.30;33.63;;;;;;;;;;5013887;28;20460;-69
2021/12/06 07:11:32;;;;;;;63.35;33.85;;;;;;;;;;5012415;28;20025;-69
2021/12/06 07:13:58;;;;;;;57.80;31.52;;;;;;;;;;5013882;28;20018;-67
2021/12/06 07:16:25;;;;;;;59.30;31.65;;;;;;;;;;5012661;28;20036;-67
2021/12/06 07:18:51;;;;;;;60.75;30.83;;;;;;;;;;5014067;28;20033;-67
2021/12/06 07:21:18;;;;;;;61.45;30.77;;;;;;;;;;5012690;28;20104;-67
2021/12/06 07:23:44;;;;;;;61.88;32.17;;;;;;;;;;5011969;28;20037;-67
2021/12/06 07:26:11;;;;;;;64.55;32.55;;;;;;;;;;5013687;28;20411;-67
2021/12/06 07:28:38;;;;;;;60.25;32.40;;;;;;;;;;5013754;28;20026;-68
2021/12/06 07:31:06;;;;;;;59.90;30.55;;;;;;;;;;5013511;28;20377;-66
2021/12/06 07:33:32;;;;;;;59.25;31.42;;;;;;;;;;5013513;28;20048;-66
2021/12/06 07:35:58;;;;;;;59.53;32.00;;;;;;;;;;5013404;28;20030;-67
2021/12/06 07:38:24;;;;;;;58.33;30.88;;;;;;;;;;5013345;28;20057;-67
2021/12/06 07:40:51;;;;;;;53.45;28.95;;;;;;;;;;5012288;28;20507;-67
2021/12/06 07:43:20;;;;;;;63.40;30.55;;;;;;;;;;5012208;28;20100;-68
2021/12/06 07:45:46;;;;;;;50.85;28.70;;;;;;;;;;5011896;28;20487;-68
2021/12/06 07:48:12;;;;;;;56.00;29.25;;;;;;;;;;5012706;28;20033;-68
2021/12/06 07:50:38;;;;;;;54.47;31.17;;;;;;;;;;5011040;28;20022;-67
2021/12/06 07:53:04;;;;;;;54.45;30.23;;;;;;;;;;5012102;28;20025;-67
2021/12/06 07:55:34;;;;;;;55.90;30.88;;;;;;;;;;5012761;28;20034;-67
2021/12/06 07:58:00;;;;;;;58.97;30.80;;;;;;;;;;5013475;28;20468;-67
2021/12/06 08:00:27;;;;;;;57.42;30.52;;;;;;;;;;5011617;28;20034;-67
2021/12/06 08:02:53;;;;;;;57.17;30.30;;;;;;;;;;5012850;28;20030;-67
2021/12/06 08:05:30;;;;;;;63.88;33.22;;;;;;;;;;5012556;28;20030;-67
2021/12/06 08:07:57;;;;;;;59.45;32.45;;;;;;;;;;5012903;28;20467;-67
2021/12/06 08:10:23;;;;;;;52.78;28.70;;;;;;;;;;5012972;28;20026;-67
2021/12/06 08:12:49;;;;;;;52.95;28.73;;;;;;;;;;5012845;28;20025;-67
2021/12/06 08:15:15;;;;;;;52.85;27.98;;;;;;;;;;5012251;28;20120;-68
2021/12/06 08:17:41;;;;;;;49.17;26.30;;;;;;;;;;5013149;28;20483;-68
2021/12/06 08:20:08;;;;;;;50.75;27.70;;;;;;;;;;5011331;28;20108;-68
2021/12/06 08:22:34;;;;;;;48.80;26.95;;;;;;;;;;5013034;28;20037;-67
2021/12/06 08:25:00;;;;;;;50.58;26.60;;;;;;;;;;5012490;28;20112;-66
2021/12/06 08:27:26;;;;;;;48.20;26.92;;;;;;;;;;5012538;28;20060;-67
2021/12/06 08:29:52;;;;;;;53.55;27.95;;;;;;;;;;5011272;28;20022;-68
2021/12/06 08:32:18;;;;;;;50.75;26.63;;;;;;;;;;5012683;28;20030;-68
2021/12/06 08:34:45;;;;;;;45.47;26.27;;;;;;;;;;5010785;28;20030;-67
2021/12/06 08:37:11;;;;;;;40.28;22.70;;;;;;;;;;5012330;28;20030;-67
2021/12/06 08:39:38;;;;;;;41.78;24.65;;;;;;;;;;5012177;28;20498;-67
2021/12/06 08:42:05;;;;;;;45.20;25.23;;;;;;;;;;5012337;28;20034;-67
2021/12/06 08:44:31;;;;;;;52.65;27.92;;;;;;;;;;5010788;28;20067;-67
2021/12/06 08:46:57;;;;;;;44.40;26.13;;;;;;;;;;5012345;28;20022;-67
2021/12/06 08:49:23;;;;;;;43.83;25.33;;;;;;;;;;5012155;28;20476;-67
2021/12/06 08:51:50;;;;;;;46.67;26.35;;;;;;;;;;5012390;28;20018;-66
2021/12/06 08:54:18;;;;;;;48.20;27.02;;;;;;;;;;5012159;28;20399;-68
2021/12/06 08:56:45;;;;;;;50.92;28.33;;;;;;;;;;5010847;28;20025;-68
2021/12/06 08:59:11;;;;;;;50.65;27.95;;;;;;;;;;5012279;28;20030;-68
2021/12/06 09:01:37;;;;;;;49.08;26.73;;;;;;;;;;5012116;28;20076;-68
2021/12/06 09:04:08;;;;;;;39.40;23.45;;;;;;;;;;5010573;28;20022;-68
2021/12/06 09:06:35;;;;;;;44.13;25.23;;;;;;;;;;5012019;28;20562;-68
2021/12/06 09:09:03;;;;;;;45.63;25.42;;;;;;;;;;5011852;28;20053;-68
2021/12/06 09:11:29;;;;;;;49.33;26.67;;;;;;;;;;5011858;28;20036;-67
2021/12/06 09:13:55;;;;;;;45.20;25.15;;;;;;;;;;5011966;28;20101;-66
2021/12/06 09:16:21;;;;;;;42.33;24.40;;;;;;;;;;5011984;28;20026;-67
2021/12/06 09:18:47;;;;;;;50.10;28.60;;;;;;;;;;5012163;28;20033;-67
2021/12/06 09:21:15;;;;;;;45.28;26.70;;;;;;;;;;5010779;28;20071;-67
2021/12/06 09:23:41;;;;;;;47.97;26.65;;;;;;;;;;5011897;28;20476;-67
2021/12/06 09:26:07;;;;;;;46.95;26.02;;;;;;;;;;5011755;28;20040;-67
2021/12/06 09:28:33;;;;;;;40.70;23.83;;;;;;;;;;5017906;28;20021;-67
2021/12/06 09:31:01;;;;;;;42.03;24.65;;;;;;;;;;5018342;28;20032;-68
2021/12/06 09:33:28;;;;;;;48.03;24.40;;;;;;;;;;5018074;28;20037;-68
2021/12/06 09:35:58;;;;;;;46.33;25.95;;;;;;;;;;5018029;28;20073;-67
2021/12/06 09:38:28;;;;;;;49.70;27.33;;;;;;;;;;5018926;28;20029;-68
2021/12/06 09:40:55;;;;;;;52.47;28.73;;;;;;;;;;5016899;28;20026;-67
2021/12/06 09:43:21;;;;;;;47.38;26.80;;;;;;;;;;5017972;28;20030;-66
2021/12/06 09:45:48;;;;;;;49.03;27.17;;;;;;;;;;5017988;28;20037;-66
2021/12/06 09:48:16;;;;;;;51.10;27.75;;;;;;;;;;5018161;28;20072;-68
2021/12/06 09:50:44;;;;;;;51.65;28.25;;;;;;;;;;5018243;28;20022;-67
2021/12/06 09:53:11;;;;;;;53.53;28.83;;;;;;;;;;5018656;28;20060;-67
2021/12/06 09:55:38;;;;;;;54.28;29.58;;;;;;;;;;5018683;28;20029;-67
2021/12/06 09:58:05;;;;;;;56.55;30.05;;;;;;;;;;5018137;28;20403;-67
2021/12/06 10:00:34;;;;;;;52.05;27.67;;;;;;;;;;5018091;28;20025;-68
2021/12/06 10:03:00;;;;;;;49.30;26.70;;;;;;;;;;5018182;28;20030;-67
2021/12/06 10:05:29;;;;;;;49.63;27.90;;;;;;;;;;5018098;28;20486;-66
2021/12/06 10:07:55;;;;;;;52.03;28.02;;;;;;;;;;5018235;28;20125;-68
2021/12/06 10:10:21;;;;;;;59.00;30.20;;;;;;;;;;5018071;28;20025;-67
2021/12/06 10:12:52;;;;;;;53.60;29.73;;;;;;;;;;5017793;28;20137;-67
2021/12/06 10:15:18;;;;;;;56.65;31.10;;;;;;;;;;5018212;28;20033;-68
2021/12/06 10:17:44;;;;;;;61.55;33.92;;;;;;;;;;5017877;28;20472;-68
2021/12/06 10:20:10;;;;;;;60.28;34.78;;;;;;;;;;5017896;28;20037;-68
2021/12/06 10:22:36;;;;;;;60.38;32.08;;;;;;;;;;5018098;28;20135;-67
2021/12/06 10:25:05;;;;;;;56.85;31.10;;;;;;;;;;5017607;28;20065;-67
2021/12/06 10:27:31;;;;;;;58.95;31.13;;;;;;;;;;5018127;28;20018;-67
2021/12/06 10:30:03;;;;;;;65.32;34.20;;;;;;;;;;5018150;28;20479;-67
2021/12/06 10:32:32;;;;;;;64.13;34.97;;;;;;;;;;5018135;28;20025;-67
2021/12/06 10:35:04;;;;;;;66.60;34.67;;;;;;;;;;5017690;28;20025;-67
2021/12/06 10:37:30;;;;;;;66.90;34.30;;;;;;;;;;5017957;28;20492;-67
2021/12/06 10:39:56;;;;;;;63.17;34.38;;;;;;;;;;5014502;28;20034;-68
2021/12/06 10:42:42;;;;;;;65.68;35.05;;;;;;;;;;5013482;28;20116;-67
2021/12/06 10:45:13;;;;;;;62.38;34.40;;;;;;;;;;5014371;28;20046;-68
2021/12/06 10:47:40;;;;;;;57.80;32.58;;;;;;;;;;5014761;28;20080;-68
2021/12/06 10:50:11;;;;;;;64.45;34.70;;;;;;;;;;5014397;28;20022;-67
2021/12/06 10:52:47;;;;;;;56.40;32.10;;;;;;;;;;5014544;28;20480;-67
2021/12/06 10:55:13;;;;;;;58.97;32.60;;;;;;;;;;5014401;28;20030;-67
2021/12/06 10:57:53;;;;;;;61.53;32.83;;;;;;;;;;5014698;28;20431;-68
2021/12/06 11:00:48;;;;;;;67.13;32.92;;;;;;;;;;5014558;28;20026;-68
2021/12/06 11:03:23;;;;;;;62.72;33.38;;;;;;;;;;5005669;28;20065;-68
2021/12/06 11:06:02;;;;;;;54.17;30.10;;;;;;;;;;5014156;28;20033;-69
2021/12/06 11:08:28;;;;;;;60.03;32.47;;;;;;;;;;5014107;28;20097;-67
2021/12/06 11:11:02;;;;;;;56.55;31.45;;;;;;;;;;5014054;28;20101;-67
2021/12/06 11:13:33;;;;;;;62.50;31.98;;;;;;;;;;5013793;28;20475;-67
2021/12/06 11:16:05;;;;;;;59.08;32.90;;;;;;;;;;5013873;28;20050;-68
2021/12/06 11:18:37;;;;;;;63.53;32.95;;;;;;;;;;5013865;28;20033;-66
2021/12/06 11:21:05;;;;;;;63.78;34.05;;;;;;;;;;5014126;28;20105;-67
2021/12/06 11:23:31;;;;;;;64.05;33.42;;;;;;;;;;5013861;28;20065;-67
2021/12/06 11:25:58;;;;;;;61.60;33.50;;;;;;;;;;5012266;28;20049;-67
2021/12/06 11:28:26;;;;;;;58.55;32.03;;;;;;;;;;5012901;28;20022;-68
2021/12/06 11:31:15;;;;;;;53.08;31.00;;;;;;;;;;5012075;28;20045;-68
2021/12/06 11:33:41;;;;;;;51.58;29.58;;;;;;;;;;4994304;28;20492;-67
2021/12/06 11:36:18;;;;;;;54.58;28.83;;;;;;;;;;4994021;28;20041;-67
2021/12/06 11:38:48;;;;;;;59.28;31.23;;;;;;;;;;4993966;28;20105;-68
2021/12/06 11:41:14;;;;;;;56.10;30.75;;;;;;;;;;4994220;28;20433;-68
2021/12/06 11:43:41;;;;;;;54.78;32.17;;;;;;;;;;4993826;28;20068;-70
2021/12/06 11:46:08;;;;;;;53.65;30.45;;;;;;;;;;4993849;28;20030;-68
2021/12/06 11:48:37;;;;;;;58.83;31.33;;;;;;;;;;4993918;28;20400;-67
2021/12/06 11:51:07;;;;;;;61.17;31.90;;;;;;;;;;4992548;28;20023;-67
2021/12/06 11:53:37;;;;;;;67.63;33.30;;;;;;;;;;4993484;28;20030;-67
2021/12/06 11:56:08;;;;;;;64.65;34.25;;;;;;;;;;4993561;28;20034;-68
2021/12/06 11:58:43;;;;;;;60.58;31.77;;;;;;;;;;4993773;28;20045;-68
2021/12/06 12:01:12;;;;;;;63.88;34.67;;;;;;;;;;4993242;28;20080;-68
2021/12/06 12:03:39;;;;;;;65.22;33.33;;;;;;;;;;4993157;28;20034;-68
2021/12/06 12:06:23;;;;;;;58.28;30.98;;;;;;;;;;4993360;28;20100;-67
2021/12/06 12:09:00;;;;;;;58.20;31.77;;;;;;;;;;4993474;28;20049;-68
2021/12/06 12:11:26;;;;;;;54.88;30.20;;;;;;;;;;4993558;28;20022;-67
2021/12/06 12:13:53;;;;;;;64.97;33.58;;;;;;;;;;4992926;28;20030;-68
2021/12/06 12:16:21;;;;;;;61.47;31.63;;;;;;;;;;4993240;28;20046;-68
2021/12/06 12:18:47;;;;;;;64.18;33.60;;;;;;;;;;4993308;28;20365;-67
2021/12/06 12:21:14;;;;;;;62.58;33.83;;;;;;;;;;4993456;28;20030;-67
2021/12/06 12:23:42;;;;;;;63.13;33.78;;;;;;;;;;4993222;28;20030;-69
2021/12/06 12:26:12;;;;;;;62.80;32.80;;;;;;;;;;4992951;28;20389;-67
2021/12/06 12:28:50;;;;;;;61.92;34.78;;;;;;;;;;4993341;28;20108;-68
2021/12/06 12:31:17;;;;;;;64.95;32.47;;;;;;;;;;4993001;28;20436;-67
2021/12/06 12:33:43;;;;;;;52.55;28.92;;;;;;;;;;4992792;28;20041;-68
2021/12/06 12:36:11;;;;;;;54.20;29.75;;;;;;;;;;4993121;28;20031;-67
2021/12/06 12:38:38;;;;;;;58.13;32.45;;;;;;;;;;4992951;28;20030;-68
2021/12/06 12:41:09;;;;;;;50.28;28.50;;;;;;;;;;4992974;28;20054;-68
2021/12/06 12:43:35;;;;;;;51.17;28.58;;;;;;;;;;4992747;28;20022;-67
2021/12/06 12:46:09;;;;;;;52.38;28.95;;;;;;;;;;4993009;28;20388;-67
2021/12/06 12:49:04;;;;;;;56.78;30.08;;;;;;;;;;4992979;28;20030;-67
2021/12/06 12:51:35;;;;;;;50.95;29.33;;;;;;;;;;4987843;28;20026;-67
2021/12/06 12:54:07;;;;;;;53.97;29.55;;;;;;;;;;4992562;28;20030;-67
2021/12/06 12:56:52;;;;;;;49.03;27.27;;;;;;;;;;4992631;28;20631;-67
2021/12/06 12:59:23;;;;;;;48.58;27.70;;;;;;;;;;4991267;28;20076;-67
2021/12/06 13:02:09;;;;;;;56.45;30.13;;;;;;;;;;4992085;28;20031;-68
2021/12/06 13:04:54;;;;;;;51.33;27.80;;;;;;;;;;4992318;28;20030;-68
2021/12/06 13:07:20;;;;;;;52.10;27.35;;;;;;;;;;5046346;22;20057;-75
2021/12/06 13:09:46;;;;;;;50.17;28.25;;;;;;;;;;5032131;28;20471;-75
2021/12/06 13:12:15;;;;;;;52.33;27.00;;;;;;;;;;5032676;28;20025;-75
2021/12/06 13:15:00;;;;;;;47.03;26.55;;;;;;;;;;5031912;28;20020;-75
2021/12/06 13:17:43;;;;;;;48.30;27.80;;;;;;;;;;5032572;28;20029;-75
2021/12/06 13:20:11;;;;;;;43.63;25.35;;;;;;;;;;5032078;28;20386;-74
2021/12/06 13:22:46;;;;;;;48.72;25.83;;;;;;;;;;5031794;28;20049;-72
2021/12/06 13:25:14;;;;;;;43.92;23.08;;;;;;;;;;5031980;28;20026;-74
2021/12/06 13:27:43;;;;;;;41.83;22.75;;;;;;;;;;5031707;28;20476;-73
2021/12/06 13:30:09;;;;;;;37.08;21.58;;;;;;;;;;5031727;28;20029;-74
2021/12/06 13:32:38;;;;;;;38.33;21.33;;;;;;;;;;5031399;28;20026;-74
2021/12/06 13:35:22;;;;;;;40.75;21.45;;;;;;;;;;5031401;28;20057;-72
2021/12/06 13:38:07;;;;;;;40.10;21.88;;;;;;;;;;5031834;28;20029;-74
2021/12/06 13:40:36;;;;;;;40.70;21.83;;;;;;;;;;5031665;28;20391;-74
2021/12/06 13:43:10;;;;;;;40.75;22.10;;;;;;;;;;5031063;28;20025;-73
2021/12/06 13:45:38;;;;;;;34.35;19.83;;;;;;;;;;5031555;28;20079;-74
2021/12/06 13:48:08;;;;;;;34.83;19.92;;;;;;;;;;5031670;28;20025;-74
2021/12/06 13:50:35;;;;;;;30.23;16.00;;;;;;;;;;5032236;28;20067;-74
2021/12/06 13:53:01;;;;;;;31.80;19.30;;;;;;;;;;5031402;28;20030;-74
2021/12/06 13:55:29;;;;;;;34.83;19.20;;;;;;;;;;5031208;28;20368;-74
2021/12/06 13:57:57;;;;;;;33.13;17.27;;;;;;;;;;5030712;28;20421;-72
2021/12/06 14:00:27;;;;;;;36.20;21.17;;;;;;;;;;5031252;28;20026;-74
2021/12/06 14:02:55;;;;;;;33.15;19.35;;;;;;;;;;5031210;28;20048;-75
2021/12/06 14:05:21;;;;;;;38.97;21.25;;;;;;;;;;5031056;28;20057;-72
2021/12/06 14:07:47;;;;;;;39.25;21.63;;;;;;;;;;5030535;28;20029;-74
2021/12/06 14:10:14;;;;;;;41.38;23.02;;;;;;;;;;5030811;28;20537;-74
2021/12/06 14:12:44;;;;;;;43.75;22.05;;;;;;;;;;5029748;28;20026;-75
2021/12/06 14:15:19;;;;;;;41.45;21.75;;;;;;;;;;5033737;28;20081;-75
2021/12/06 14:17:47;;;;;;;41.38;23.30;;;;;;;;;;5034937;28;20022;-74
2021/12/06 14:20:14;;;;;;;45.28;24.55;;;;;;;;;;5034901;28;20025;-75
2021/12/06 14:22:42;;;;;;;41.08;22.48;;;;;;;;;;5034359;28;20032;-73
2021/12/06 14:25:09;;;;;;;45.58;24.52;;;;;;;;;;5034704;28;20025;-72
2021/12/06 14:27:38;;;;;;;40.45;23.95;;;;;;;;;;5034714;28;20018;-72
2021/12/06 14:30:06;;;;;;;46.47;24.05;;;;;;;;;;5034881;28;20032;-72
2021/12/06 14:32:32;;;;;;;45.13;24.92;;;;;;;;;;5034758;28;20431;-74
2021/12/06 14:34:58;;;;;;;44.65;24.20;;;;;;;;;;5034785;28;20468;-74